createdAt,value
2023-04-12T00:00:03.531Z,6.62
2023-04-12T00:01:03.588Z,6.50
2023-04-12T00:02:03.626Z,6.44
2023-04-12T00:03:03.751Z,6.38
2023-04-12T00:04:04.032Z,6.31
2023-04-12T00:05:03.822Z,6.25
2023-04-12T00:06:03.781Z,6.25
2023-04-12T00:07:03.669Z,6.19
2023-04-12T00:08:03.783Z,6.19
2023-04-12T00:09:03.749Z,6.31
2023-04-12T00:10:03.993Z,6.25
2023-04-12T00:11:03.770Z,6.31
2023-04-12T00:12:03.692Z,6.44
2023-04-12T00:13:03.659Z,6.44
2023-04-12T00:14:03.742Z,6.44
2023-04-12T00:15:04.423Z,6.50
2023-04-12T00:16:03.764Z,6.44
2023-04-12T00:17:03.834Z,6.38
2023-04-12T00:18:03.864Z,6.31
2023-04-12T00:19:03.929Z,6.25
2023-04-12T00:20:03.871Z,6.25
2023-04-12T00:21:03.991Z,6.12
2023-04-12T00:22:03.993Z,6.12
2023-04-12T00:23:04.075Z,6.06
2023-04-12T00:24:03.990Z,6.06
2023-04-12T00:25:04.122Z,6.06
2023-04-12T00:26:04.085Z,6.06
2023-04-12T00:27:03.995Z,6.06
2023-04-12T00:28:03.996Z,6.19
2023-04-12T00:29:04.069Z,6.31
2023-04-12T00:30:04.235Z,6.31
2023-04-12T00:31:04.199Z,6.38
2023-04-12T00:32:04.166Z,6.38
2023-04-12T00:33:04.108Z,6.38
2023-04-12T00:34:04.163Z,6.38
2023-04-12T00:35:04.244Z,6.31
2023-04-12T00:36:04.315Z,6.25
2023-04-12T00:37:04.247Z,6.12
2023-04-12T00:38:04.271Z,6.06
2023-04-12T00:39:04.236Z,6.12
2023-04-12T00:40:04.396Z,6.06
2023-04-12T00:41:04.416Z,6.19
2023-04-12T00:42:04.396Z,6.19
2023-04-12T00:43:03.519Z,6.25
2023-04-12T00:44:03.590Z,6.12
2023-04-12T00:45:03.598Z,6.00
2023-04-12T00:46:03.586Z,5.94
2023-04-12T00:47:03.720Z,5.94
2023-04-12T00:48:03.715Z,5.88
2023-04-12T00:49:03.841Z,5.88
2023-04-12T00:50:03.676Z,5.81
2023-04-12T00:51:04.029Z,5.81
2023-04-12T00:52:04.178Z,5.81
2023-04-12T00:53:04.075Z,5.81
2023-04-12T00:54:04.159Z,5.88
2023-04-12T00:55:04.239Z,5.94
2023-04-12T00:56:04.297Z,5.94
2023-04-12T00:57:04.235Z,5.94
2023-04-12T00:58:04.397Z,6.00
2023-04-12T00:59:04.407Z,5.94
2023-04-12T01:00:03.513Z,5.88
2023-04-12T01:01:03.712Z,5.94
2023-04-12T01:02:03.773Z,6.00
2023-04-12T01:03:04.056Z,6.00
2023-04-12T01:04:03.928Z,6.00
2023-04-12T01:05:03.829Z,6.00
2023-04-12T01:06:03.829Z,5.94
2023-04-12T01:07:03.901Z,5.94
2023-04-12T01:08:03.979Z,5.94
2023-04-12T01:09:03.996Z,5.94
2023-04-12T01:10:04.066Z,5.94
2023-04-12T01:11:04.071Z,5.94
2023-04-12T01:12:04.152Z,5.94
2023-04-12T01:13:04.060Z,5.94
2023-04-12T01:14:04.157Z,5.88
2023-04-12T01:15:04.230Z,5.94
2023-04-12T01:16:04.296Z,5.81
2023-04-12T01:17:04.391Z,5.88
2023-04-12T01:18:04.460Z,5.94
2023-04-12T01:19:04.330Z,6.00
2023-04-12T01:20:05.823Z,6.00
2023-04-12T01:21:04.431Z,5.94
2023-04-12T01:22:04.381Z,5.94
2023-04-12T01:23:04.481Z,6.00
2023-04-12T01:24:03.514Z,5.94
2023-04-12T01:25:04.401Z,5.81
2023-04-12T01:26:03.625Z,5.88
2023-04-12T01:27:03.676Z,6.06
2023-04-12T01:28:03.691Z,6.00
2023-04-12T01:29:03.685Z,6.06
2023-04-12T01:30:03.763Z,6.00
2023-04-12T01:31:03.751Z,6.19
2023-04-12T01:32:03.833Z,5.94
2023-04-12T01:33:03.948Z,5.94
2023-04-12T01:34:03.940Z,6.06
2023-04-12T01:35:03.989Z,6.06
2023-04-12T01:36:05.652Z,6.00
2023-04-12T01:37:04.161Z,5.94
2023-04-12T01:38:04.155Z,5.88
2023-04-12T01:39:04.305Z,5.88
2023-04-12T01:40:04.402Z,5.81
2023-04-12T01:41:04.329Z,5.81
2023-04-12T01:42:04.396Z,5.75
2023-04-12T01:43:04.495Z,5.94
2023-04-12T01:44:04.468Z,5.94
2023-04-12T01:45:03.510Z,5.94
2023-04-12T01:46:03.804Z,5.94
2023-04-12T01:47:03.774Z,6.06
2023-04-12T01:48:03.693Z,5.94
2023-04-12T01:49:03.667Z,6.06
2023-04-12T01:50:03.678Z,6.19
2023-04-12T01:51:03.583Z,6.19
2023-04-12T01:52:03.596Z,6.06
2023-04-12T01:53:03.756Z,6.12
2023-04-12T01:54:03.666Z,6.12
2023-04-12T01:55:03.765Z,6.06
2023-04-12T01:56:03.837Z,6.06
2023-04-12T01:57:03.742Z,6.06
2023-04-12T01:58:03.825Z,6.12
2023-04-12T01:59:03.837Z,6.12
2023-04-12T02:00:03.920Z,6.12
2023-04-12T02:01:04.076Z,6.06
2023-04-12T02:02:04.025Z,6.06
2023-04-12T02:03:04.344Z,6.12
2023-04-12T02:04:04.207Z,6.06
2023-04-12T02:05:04.168Z,6.12
2023-04-12T02:06:04.328Z,6.00
2023-04-12T02:07:04.308Z,5.94
2023-04-12T02:08:04.393Z,5.94
2023-04-12T02:09:04.398Z,6.00
2023-04-12T02:10:04.489Z,6.06
2023-04-12T02:11:04.407Z,6.06
2023-04-12T02:12:03.514Z,6.00
2023-04-12T02:13:03.682Z,6.06
2023-04-12T02:14:03.667Z,6.12
2023-04-12T02:15:03.925Z,6.12
2023-04-12T02:16:03.988Z,6.06
2023-04-12T02:17:04.062Z,6.00
2023-04-12T02:18:04.068Z,6.00
2023-04-12T02:19:04.080Z,6.00
2023-04-12T02:20:04.080Z,6.00
2023-04-12T02:21:04.149Z,6.00
2023-04-12T02:22:04.230Z,5.94
2023-04-12T02:23:04.309Z,5.94
2023-04-12T02:24:04.426Z,5.88
2023-04-12T02:25:04.490Z,5.88
2023-04-12T02:26:04.335Z,6.00
2023-04-12T02:27:04.262Z,6.06
2023-04-12T02:28:04.414Z,6.06
2023-04-12T02:29:04.561Z,6.12
2023-04-12T02:30:03.444Z,6.12
2023-04-12T02:31:03.558Z,6.12
2023-04-12T02:32:03.514Z,6.12
2023-04-12T02:33:03.684Z,6.19
2023-04-12T02:34:03.592Z,6.12
2023-04-12T02:35:03.618Z,6.00
2023-04-12T02:36:03.652Z,6.06
2023-04-12T02:37:03.683Z,6.12
2023-04-12T02:38:03.674Z,6.25
2023-04-12T02:39:03.775Z,6.25
2023-04-12T02:40:03.836Z,6.31
2023-04-12T02:41:03.910Z,6.19
2023-04-12T02:42:03.986Z,6.25
2023-04-12T02:43:04.009Z,6.19
2023-04-12T02:44:04.023Z,6.19
2023-04-12T02:45:03.912Z,6.25
2023-04-12T02:46:03.957Z,6.25
2023-04-12T02:47:03.997Z,6.44
2023-04-12T02:48:04.114Z,6.56
2023-04-12T02:49:04.067Z,6.50
2023-04-12T02:50:03.990Z,6.38
2023-04-12T02:51:04.092Z,6.38
2023-04-12T02:52:04.018Z,6.31
2023-04-12T02:53:04.068Z,6.25
2023-04-12T02:54:03.986Z,6.38
2023-04-12T02:55:04.062Z,6.31
2023-04-12T02:56:05.496Z,6.38
2023-04-12T02:57:04.179Z,6.44
2023-04-12T02:58:04.150Z,6.50
2023-04-12T02:59:04.111Z,6.62
2023-04-12T03:00:04.253Z,6.50
2023-04-12T03:01:04.194Z,6.31
2023-04-12T03:02:04.467Z,6.25
2023-04-12T03:03:04.561Z,6.25
2023-04-12T03:04:04.485Z,6.19
2023-04-12T03:05:04.339Z,6.12
2023-04-12T03:06:04.345Z,6.06
2023-04-12T03:07:04.379Z,6.00
2023-04-12T03:08:04.393Z,6.00
2023-04-12T03:09:04.468Z,6.00
2023-04-12T03:10:04.473Z,6.00
2023-04-12T03:11:04.385Z,6.06
2023-04-12T03:12:03.546Z,6.00
2023-04-12T03:13:03.510Z,6.06
2023-04-12T03:14:03.594Z,6.12
2023-04-12T03:15:03.578Z,6.12
2023-04-12T03:16:03.701Z,6.12
2023-04-12T03:17:03.684Z,6.19
2023-04-12T03:18:03.711Z,6.12
2023-04-12T03:19:03.755Z,6.06
2023-04-12T03:20:03.861Z,6.12
2023-04-12T03:21:03.911Z,6.19
2023-04-12T03:22:04.071Z,6.25
2023-04-12T03:23:04.098Z,6.25
2023-04-12T03:24:04.150Z,6.12
2023-04-12T03:25:04.159Z,6.12
2023-04-12T03:26:04.157Z,6.12
2023-04-12T03:27:04.075Z,6.12
2023-04-12T03:28:04.152Z,6.06
2023-04-12T03:29:04.145Z,6.06
2023-04-12T03:30:04.238Z,6.19
2023-04-12T03:31:04.178Z,6.31
2023-04-12T03:32:04.322Z,6.25
2023-04-12T03:33:04.356Z,6.19
2023-04-12T03:34:04.316Z,6.25
2023-04-12T03:35:04.335Z,6.31
2023-04-12T03:36:04.432Z,6.50
2023-04-12T03:37:03.453Z,6.62
2023-04-12T03:38:03.529Z,6.56
2023-04-12T03:39:03.522Z,6.56
2023-04-12T03:40:03.658Z,6.50
2023-04-12T03:41:03.743Z,6.44
2023-04-12T03:42:03.822Z,6.38
2023-04-12T03:43:03.822Z,6.31
2023-04-12T03:44:03.819Z,6.31
2023-04-12T03:45:04.316Z,6.25
2023-04-12T03:46:04.196Z,6.25
2023-04-12T03:47:04.223Z,6.31
2023-04-12T03:48:04.426Z,6.31
2023-04-12T03:49:04.429Z,6.44
2023-04-12T03:50:11.297Z,6.44
2023-04-12T03:51:04.313Z,6.44
2023-04-12T03:52:04.391Z,6.38
2023-04-12T03:53:04.392Z,6.31
2023-04-12T03:54:04.616Z,6.31
2023-04-12T03:55:03.526Z,6.19
2023-04-12T03:56:03.584Z,6.25
2023-04-12T03:57:03.517Z,6.31
2023-04-12T03:58:03.750Z,6.25
2023-04-12T03:59:03.667Z,6.19
2023-04-12T04:00:03.776Z,6.25
2023-04-12T04:01:03.748Z,6.12
2023-04-12T04:02:03.873Z,6.19
2023-04-12T04:03:03.985Z,6.31
2023-04-12T04:04:04.168Z,6.25
2023-04-12T04:05:04.089Z,6.25
2023-04-12T04:06:04.059Z,6.25
2023-04-12T04:07:04.169Z,6.25
2023-04-12T04:08:04.143Z,6.25
2023-04-12T04:09:04.312Z,6.31
2023-04-12T04:10:04.314Z,6.25
2023-04-12T04:11:04.300Z,6.25
2023-04-12T04:12:04.477Z,6.19
2023-04-12T04:13:04.537Z,6.19
2023-04-12T04:14:04.472Z,6.19
2023-04-12T04:15:04.405Z,6.19
2023-04-12T04:16:03.516Z,6.12
2023-04-12T04:17:03.589Z,6.12
2023-04-12T04:18:03.629Z,6.19
2023-04-12T04:19:03.606Z,6.19
2023-04-12T04:20:03.717Z,6.25
2023-04-12T04:21:03.675Z,6.25
2023-04-12T04:22:03.842Z,6.25
2023-04-12T04:23:03.919Z,6.25
2023-04-12T04:24:03.746Z,6.31
2023-04-12T04:25:04.182Z,6.38
2023-04-12T04:26:04.151Z,6.38
2023-04-12T04:27:04.197Z,6.38
2023-04-12T04:28:04.404Z,6.38
2023-04-12T04:29:04.393Z,6.44
2023-04-12T04:30:04.407Z,6.44
2023-04-12T04:31:04.398Z,6.50
2023-04-12T04:32:03.656Z,6.50
2023-04-12T04:33:03.696Z,6.50
2023-04-12T04:34:03.776Z,6.62
2023-04-12T04:35:03.760Z,6.69
2023-04-12T04:36:03.809Z,6.69
2023-04-12T04:37:03.748Z,6.62
2023-04-12T04:38:03.838Z,6.75
2023-04-12T04:39:03.746Z,6.69
2023-04-12T04:40:03.918Z,6.62
2023-04-12T04:41:03.853Z,6.62
2023-04-12T04:42:03.907Z,6.56
2023-04-12T04:43:04.463Z,6.56
2023-04-12T04:44:04.075Z,6.69
2023-04-12T04:45:04.238Z,6.69
2023-04-12T04:46:04.322Z,6.69
2023-04-12T04:47:03.548Z,7.00
2023-04-12T04:48:03.673Z,7.19
2023-04-12T04:49:03.609Z,7.19
2023-04-12T04:50:03.679Z,7.50
2023-04-12T04:51:03.604Z,7.62
2023-04-12T04:52:03.674Z,7.75
2023-04-12T04:53:03.750Z,7.62
2023-04-12T04:54:03.836Z,7.62
2023-04-12T04:55:05.793Z,7.44
2023-04-12T04:56:04.090Z,7.38
2023-04-12T04:57:04.005Z,7.25
2023-04-12T04:58:04.083Z,7.38
2023-04-12T04:59:04.003Z,7.31
2023-04-12T05:00:03.684Z,7.19
2023-04-12T05:01:03.682Z,7.19
2023-04-12T05:02:03.611Z,7.19
2023-04-12T05:03:03.734Z,7.25
2023-04-12T05:04:03.897Z,7.38
2023-04-12T05:05:03.757Z,7.44
2023-04-12T05:06:03.985Z,7.62
2023-04-12T05:07:03.830Z,7.62
2023-04-12T05:08:03.981Z,7.56
2023-04-12T05:09:04.002Z,7.56
2023-04-12T05:10:04.067Z,7.38
2023-04-12T05:11:04.158Z,7.38
2023-04-12T05:12:04.235Z,7.25
2023-04-12T05:13:04.238Z,7.31
2023-04-12T05:14:04.234Z,7.25
2023-04-12T05:15:11.428Z,7.25
2023-04-12T05:16:04.225Z,7.25
2023-04-12T05:17:04.415Z,7.31
2023-04-12T05:18:04.515Z,7.44
2023-04-12T05:19:04.638Z,7.56
2023-04-12T05:20:04.553Z,7.62
2023-04-12T05:21:04.403Z,7.69
2023-04-12T05:22:04.390Z,7.81
2023-04-12T05:23:04.310Z,7.81
2023-04-12T05:24:04.388Z,7.69
2023-04-12T05:25:04.477Z,7.56
2023-04-12T05:26:04.398Z,7.56
2023-04-12T05:27:04.404Z,7.62
2023-04-12T05:28:04.394Z,7.75
2023-04-12T05:29:04.404Z,7.69
2023-04-12T05:30:03.501Z,7.69
2023-04-12T05:31:03.646Z,7.75
2023-04-12T05:32:03.594Z,7.88
2023-04-12T05:33:03.698Z,7.88
2023-04-12T05:34:03.659Z,7.88
2023-04-12T05:35:03.662Z,8.06
2023-04-12T05:36:03.779Z,8.06
2023-04-12T05:37:03.665Z,8.00
2023-04-12T05:38:03.744Z,8.00
2023-04-12T05:39:03.672Z,7.88
2023-04-12T05:40:03.752Z,7.81
2023-04-12T05:41:03.751Z,7.88
2023-04-12T05:42:03.681Z,7.88
2023-04-12T05:43:03.761Z,7.88
2023-04-12T05:44:03.759Z,7.94
2023-04-12T05:45:03.749Z,8.06
2023-04-12T05:46:03.793Z,8.19
2023-04-12T05:47:03.751Z,8.44
2023-04-12T05:48:03.712Z,8.25
2023-04-12T05:49:03.615Z,8.31
2023-04-12T05:50:04.694Z,8.31
2023-04-12T05:51:03.704Z,8.38
2023-04-12T05:52:03.681Z,8.44
2023-04-12T05:53:03.795Z,8.50
2023-04-12T05:54:03.694Z,8.50
2023-04-12T05:55:03.608Z,8.50
2023-04-12T05:56:03.606Z,8.56
2023-04-12T05:57:03.609Z,8.94
2023-04-12T05:58:03.674Z,8.94
2023-04-12T05:59:03.685Z,9.00
2023-04-12T06:00:03.989Z,9.19
2023-04-12T06:01:03.915Z,9.25
2023-04-12T06:02:03.910Z,9.25
2023-04-12T06:03:03.935Z,9.31
2023-04-12T06:04:04.121Z,9.50
2023-04-12T06:05:04.173Z,9.62
2023-04-12T06:06:03.987Z,9.56
2023-04-12T06:07:03.996Z,9.56
2023-04-12T06:08:04.069Z,9.56
2023-04-12T06:09:04.250Z,9.69
2023-04-12T06:10:04.315Z,9.69
2023-04-12T06:11:04.230Z,9.75
2023-04-12T06:12:04.335Z,9.75
2023-04-12T06:13:04.159Z,9.88
2023-04-12T06:14:04.321Z,10.06
2023-04-12T06:15:04.239Z,10.06
2023-04-12T06:16:04.381Z,10.19
2023-04-12T06:17:04.439Z,10.31
2023-04-12T06:18:04.656Z,10.25
2023-04-12T06:19:04.407Z,10.12
2023-04-12T06:20:04.474Z,9.94
2023-04-12T06:21:04.582Z,9.88
2023-04-12T06:22:03.609Z,9.88
2023-04-12T06:23:03.538Z,9.88
2023-04-12T06:24:04.482Z,9.94
2023-04-12T06:25:04.514Z,10.00
2023-04-12T06:26:04.485Z,10.06
2023-04-12T06:27:03.684Z,10.00
2023-04-12T06:28:03.696Z,9.94
2023-04-12T06:29:03.771Z,10.00
2023-04-12T06:30:03.688Z,9.88
2023-04-12T06:31:03.692Z,9.94
2023-04-12T06:32:03.748Z,10.00
2023-04-12T06:33:03.693Z,10.06
2023-04-12T06:34:03.664Z,10.12
2023-04-12T06:35:03.785Z,10.19
2023-04-12T06:36:04.065Z,10.06
2023-04-12T06:37:03.999Z,10.50
2023-04-12T06:38:04.070Z,10.88
2023-04-12T06:39:04.157Z,10.81
2023-04-12T06:40:04.140Z,10.62
2023-04-12T06:41:04.333Z,10.50
2023-04-12T06:42:04.317Z,10.62
2023-04-12T06:43:04.397Z,10.56
2023-04-12T06:44:03.589Z,10.62
2023-04-12T06:45:03.568Z,10.62
2023-04-12T06:46:03.675Z,10.56
2023-04-12T06:47:03.643Z,10.56
2023-04-12T06:48:03.724Z,10.50
2023-04-12T06:49:03.767Z,10.50
2023-04-12T06:50:03.770Z,10.50
2023-04-12T06:51:03.802Z,10.50
2023-04-12T06:52:03.824Z,10.50
2023-04-12T06:53:03.905Z,10.50
2023-04-12T06:54:03.920Z,10.44
2023-04-12T06:55:03.829Z,10.44
2023-04-12T06:56:03.902Z,10.56
2023-04-12T06:57:03.912Z,10.50
2023-04-12T06:58:03.846Z,10.56
2023-04-12T06:59:03.829Z,10.62
2023-04-12T07:00:03.914Z,10.56
2023-04-12T07:01:04.042Z,10.69
2023-04-12T07:02:04.177Z,10.75
2023-04-12T07:03:04.090Z,11.00
2023-04-12T07:04:04.308Z,11.00
2023-04-12T07:05:04.185Z,10.94
2023-04-12T07:06:13.757Z,11.12
2023-04-12T07:07:04.175Z,11.19
2023-04-12T07:08:04.089Z,11.12
2023-04-12T07:09:04.073Z,11.06
2023-04-12T07:10:04.087Z,11.19
2023-04-12T07:11:14.559Z,11.19
2023-04-12T07:12:04.094Z,11.62
2023-04-12T07:13:04.071Z,11.56
2023-04-12T07:14:04.004Z,11.56
2023-04-12T07:15:04.087Z,11.56
2023-04-12T07:16:04.090Z,11.56
2023-04-12T07:17:04.167Z,11.56
2023-04-12T07:18:04.069Z,11.69
2023-04-12T07:19:03.997Z,11.69
2023-04-12T07:20:03.917Z,11.75
2023-04-12T07:21:03.957Z,11.75
2023-04-12T07:22:03.910Z,11.81
2023-04-12T07:23:04.016Z,11.88
2023-04-12T07:24:03.990Z,11.94
2023-04-12T07:25:04.071Z,12.06
2023-04-12T07:26:04.009Z,12.31
2023-04-12T07:27:04.040Z,12.25
2023-04-12T07:28:04.083Z,12.31
2023-04-12T07:29:04.197Z,12.38
2023-04-12T07:30:04.246Z,12.62
2023-04-12T07:31:04.154Z,12.50
2023-04-12T07:32:04.323Z,12.50
2023-04-12T07:33:12.612Z,12.56
2023-04-12T07:34:04.468Z,12.56
2023-04-12T07:35:04.555Z,12.62
2023-04-12T07:36:04.629Z,12.69
2023-04-12T07:37:03.441Z,12.69
2023-04-12T07:38:03.671Z,12.75
2023-04-12T07:39:03.671Z,13.00
2023-04-12T07:40:03.628Z,13.06
2023-04-12T07:41:03.599Z,13.12
2023-04-12T07:42:03.752Z,13.12
2023-04-12T07:43:03.665Z,13.19
2023-04-12T07:44:03.756Z,13.31
2023-04-12T07:45:03.761Z,13.31
2023-04-12T07:46:03.704Z,13.38
2023-04-12T07:47:03.752Z,13.44
2023-04-12T07:48:03.867Z,13.56
2023-04-12T07:49:03.840Z,13.56
2023-04-12T07:50:04.158Z,13.44
2023-04-12T07:51:03.998Z,13.44
2023-04-12T07:52:04.073Z,13.50
2023-04-12T07:53:04.156Z,13.62
2023-04-12T07:54:04.091Z,13.56
2023-04-12T07:55:04.152Z,13.56
2023-04-12T07:56:04.159Z,13.62
2023-04-12T07:57:04.326Z,13.62
2023-04-12T07:58:04.318Z,13.62
2023-04-12T07:59:04.335Z,13.62
2023-04-12T08:00:04.225Z,13.75
2023-04-12T08:01:04.232Z,13.75
2023-04-12T08:02:04.317Z,13.75
2023-04-12T08:03:04.229Z,13.62
2023-04-12T08:04:04.474Z,13.50
2023-04-12T08:05:04.315Z,13.62
2023-04-12T08:06:04.350Z,13.69
2023-04-12T08:07:04.477Z,13.75
2023-04-12T08:08:04.465Z,13.81
2023-04-12T08:09:04.483Z,13.94
2023-04-12T08:10:03.516Z,13.94
2023-04-12T08:11:04.470Z,13.94
2023-04-12T08:12:04.408Z,14.06
2023-04-12T08:13:04.499Z,14.19
2023-04-12T08:14:04.513Z,14.12
2023-04-12T08:15:04.483Z,14.19
2023-04-12T08:16:03.559Z,14.31
2023-04-12T08:17:03.676Z,14.25
2023-04-12T08:18:03.777Z,14.19
2023-04-12T08:19:03.687Z,14.25
2023-04-12T08:20:03.882Z,14.31
2023-04-12T08:21:04.105Z,14.31
2023-04-12T08:22:04.175Z,14.31
2023-04-12T08:23:04.077Z,14.25
2023-04-12T08:24:04.159Z,14.38
2023-04-12T08:25:04.237Z,14.50
2023-04-12T08:26:05.049Z,14.56
2023-04-12T08:27:04.080Z,14.50
2023-04-12T08:28:03.999Z,14.44
2023-04-12T08:29:04.250Z,14.19
2023-04-12T08:30:04.319Z,14.12
2023-04-12T08:31:04.359Z,14.00
2023-04-12T08:32:03.523Z,13.94
2023-04-12T08:33:03.581Z,13.94
2023-04-12T08:34:03.604Z,14.00
2023-04-12T08:35:03.829Z,14.06
2023-04-12T08:36:03.952Z,14.12
2023-04-12T08:37:03.845Z,14.12
2023-04-12T08:38:03.787Z,14.12
2023-04-12T08:39:03.830Z,14.06
2023-04-12T08:40:03.909Z,14.00
2023-04-12T08:41:04.083Z,14.06
2023-04-12T08:42:04.011Z,14.19
2023-04-12T08:43:04.003Z,14.12
2023-04-12T08:44:03.916Z,14.25
2023-04-12T08:45:03.913Z,14.44
2023-04-12T08:46:03.872Z,14.44
2023-04-12T08:47:03.875Z,14.38
2023-04-12T08:48:04.328Z,14.44
2023-04-12T08:49:04.336Z,14.44
2023-04-12T08:50:04.407Z,14.44
2023-04-12T08:51:04.415Z,14.50
2023-04-12T08:52:03.515Z,14.38
2023-04-12T08:53:03.643Z,14.25
2023-04-12T08:54:03.598Z,14.06
2023-04-12T08:55:03.793Z,14.00
2023-04-12T08:56:03.931Z,13.94
2023-04-12T08:57:04.008Z,13.94
2023-04-12T08:58:03.927Z,14.00
2023-04-12T08:59:03.919Z,14.00
2023-04-12T09:00:03.837Z,13.94
2023-04-12T09:01:03.912Z,13.94
2023-04-12T09:02:04.311Z,14.25
2023-04-12T09:03:04.450Z,14.25
2023-04-12T09:04:04.475Z,14.38
2023-04-12T09:05:04.397Z,14.31
2023-04-12T09:06:04.154Z,14.12
2023-04-12T09:07:04.308Z,14.06
2023-04-12T09:08:04.319Z,14.12
2023-04-12T09:09:05.800Z,14.12
2023-04-12T09:10:04.485Z,14.12
2023-04-12T09:11:04.407Z,14.12
2023-04-12T09:12:04.480Z,14.00
2023-04-12T09:13:03.526Z,14.00
2023-04-12T09:14:03.635Z,14.00
2023-04-12T09:15:03.592Z,14.00
2023-04-12T09:16:03.673Z,14.00
2023-04-12T09:17:03.796Z,13.88
2023-04-12T09:18:03.810Z,13.88
2023-04-12T09:19:03.844Z,13.94
2023-04-12T09:20:03.839Z,14.00
2023-04-12T09:21:03.843Z,14.00
2023-04-12T09:22:03.996Z,13.94
2023-04-12T09:23:04.157Z,14.31
2023-04-12T09:24:04.182Z,14.31
2023-04-12T09:25:04.233Z,14.44
2023-04-12T09:26:04.236Z,14.44
2023-04-12T09:27:04.433Z,14.38
2023-04-12T09:28:04.421Z,14.31
2023-04-12T09:29:04.435Z,14.25
2023-04-12T09:30:04.406Z,14.31
2023-04-12T09:31:03.510Z,14.25
2023-04-12T09:32:03.746Z,14.19
2023-04-12T09:33:03.694Z,14.19
2023-04-12T09:34:03.591Z,14.12
2023-04-12T09:35:03.695Z,14.12
2023-04-12T09:36:03.798Z,14.06
2023-04-12T09:37:03.759Z,14.06
2023-04-12T09:38:03.925Z,14.19
2023-04-12T09:39:03.839Z,14.25
2023-04-12T09:40:03.918Z,14.31
2023-04-12T09:41:03.833Z,14.12
2023-04-12T09:42:03.859Z,14.06
2023-04-12T09:43:03.917Z,14.06
2023-04-12T09:44:03.941Z,13.94
2023-04-12T09:45:03.994Z,13.94
2023-04-12T09:46:04.119Z,14.00
2023-04-12T09:47:04.079Z,14.00
2023-04-12T09:48:04.253Z,13.88
2023-04-12T09:49:04.180Z,14.00
2023-04-12T09:50:04.168Z,13.88
2023-04-12T09:51:04.074Z,13.81
2023-04-12T09:52:04.082Z,13.75
2023-04-12T09:53:04.089Z,13.88
2023-04-12T09:54:03.981Z,13.94
2023-04-12T09:55:04.094Z,13.88
2023-04-12T09:56:03.993Z,13.75
2023-04-12T09:57:04.088Z,13.69
2023-04-12T09:58:04.009Z,13.62
2023-04-12T09:59:04.209Z,13.75
2023-04-12T10:00:04.183Z,13.62
2023-04-12T10:01:04.235Z,13.75
2023-04-12T10:02:04.390Z,13.75
2023-04-12T10:03:04.648Z,13.81
2023-04-12T10:04:04.870Z,13.75
2023-04-12T10:05:04.625Z,13.62
2023-04-12T10:06:03.541Z,13.44
2023-04-12T10:07:03.509Z,13.38
2023-04-12T10:08:03.599Z,13.38
2023-04-12T10:09:03.673Z,13.31
2023-04-12T10:10:03.663Z,13.25
2023-04-12T10:11:03.678Z,13.25
2023-04-12T10:12:03.573Z,13.31
2023-04-12T10:13:03.674Z,13.31
2023-04-12T10:14:03.773Z,13.25
2023-04-12T10:15:03.752Z,13.12
2023-04-12T10:16:03.778Z,13.12
2023-04-12T10:17:03.897Z,13.06
2023-04-12T10:18:04.034Z,12.94
2023-04-12T10:19:04.284Z,13.12
2023-04-12T10:20:04.375Z,13.06
2023-04-12T10:21:03.602Z,13.12
2023-04-12T10:22:03.793Z,13.00
2023-04-12T10:23:03.745Z,12.94
2023-04-12T10:24:03.910Z,13.00
2023-04-12T10:25:04.097Z,13.06
2023-04-12T10:26:04.015Z,12.88
2023-04-12T10:27:03.908Z,12.81
2023-04-12T10:28:04.065Z,12.75
2023-04-12T10:29:04.061Z,12.81
2023-04-12T10:30:04.169Z,12.81
2023-04-12T10:31:04.157Z,12.75
2023-04-12T10:32:04.178Z,12.94
2023-04-12T10:33:04.189Z,12.88
2023-04-12T10:34:04.061Z,12.88
2023-04-12T10:35:04.162Z,12.81
2023-04-12T10:36:04.296Z,12.75
2023-04-12T10:37:04.163Z,12.69
2023-04-12T10:38:04.391Z,12.62
2023-04-12T10:39:04.418Z,12.50
2023-04-12T10:40:04.400Z,12.50
2023-04-12T10:41:04.406Z,12.56
2023-04-12T10:42:04.357Z,12.56
2023-04-12T10:43:04.396Z,12.56
2023-04-12T10:44:05.143Z,12.50
2023-04-12T10:45:04.145Z,12.50
2023-04-12T10:46:04.209Z,12.44
2023-04-12T10:47:04.305Z,12.75
2023-04-12T10:48:04.215Z,12.81
2023-04-12T10:49:04.325Z,12.69
2023-04-12T10:50:04.340Z,12.50
2023-04-12T10:51:04.334Z,12.38
2023-04-12T10:52:04.406Z,12.31
2023-04-12T10:53:04.412Z,12.19
2023-04-12T10:54:04.318Z,12.12
2023-04-12T10:55:04.534Z,12.06
2023-04-12T10:56:04.491Z,12.00
2023-04-12T10:57:04.439Z,11.94
2023-04-12T10:58:03.743Z,11.94
2023-04-12T10:59:04.075Z,11.94
2023-04-12T11:00:03.845Z,11.94
2023-04-12T11:01:03.979Z,11.94
2023-04-12T11:02:04.108Z,11.94
2023-04-12T11:03:04.258Z,11.88
2023-04-12T11:04:04.397Z,11.88
2023-04-12T11:05:04.204Z,11.94
2023-04-12T11:06:13.049Z,11.88
2023-04-12T11:07:03.703Z,11.88
2023-04-12T11:08:03.748Z,11.81
2023-04-12T11:09:03.948Z,11.81
2023-04-12T11:10:04.084Z,11.81
2023-04-12T11:11:04.069Z,11.88
2023-04-12T11:12:04.141Z,11.94
2023-04-12T11:13:04.227Z,12.00
2023-04-12T11:14:04.317Z,12.00
2023-04-12T11:15:04.270Z,11.94
2023-04-12T11:16:04.353Z,12.00
2023-04-12T11:17:04.674Z,12.12
2023-04-12T11:18:04.425Z,12.12
2023-04-12T11:19:03.755Z,12.19
2023-04-12T11:20:03.760Z,12.12
2023-04-12T11:21:03.863Z,12.25
2023-04-12T11:22:03.680Z,12.19
2023-04-12T11:23:03.752Z,12.12
2023-04-12T11:24:03.745Z,12.12
2023-04-12T11:25:03.738Z,12.06
2023-04-12T11:26:03.739Z,12.00
2023-04-12T11:27:03.757Z,12.06
2023-04-12T11:28:08.927Z,12.06
2023-04-12T11:29:03.832Z,12.06
2023-04-12T11:30:03.903Z,12.06
2023-04-12T11:31:03.884Z,12.25
2023-04-12T11:32:03.750Z,12.19
2023-04-12T11:33:03.851Z,12.12
2023-04-12T11:34:04.383Z,12.12
2023-04-12T11:35:04.458Z,12.38
2023-04-12T11:36:03.592Z,12.56
2023-04-12T11:37:03.670Z,12.56
2023-04-12T11:38:03.667Z,12.56
2023-04-12T11:39:03.688Z,12.44
2023-04-12T11:40:03.756Z,12.50
2023-04-12T11:41:03.735Z,12.44
2023-04-12T11:42:03.677Z,12.38
2023-04-12T11:43:03.673Z,12.50
2023-04-12T11:44:03.687Z,12.31
2023-04-12T11:45:11.587Z,12.00
2023-04-12T11:46:03.706Z,11.88
2023-04-12T11:47:03.587Z,11.94
2023-04-12T11:48:03.753Z,11.88
2023-04-12T11:49:03.831Z,11.94
2023-04-12T11:50:03.772Z,12.00
2023-04-12T11:51:11.208Z,12.06
2023-04-12T11:52:03.667Z,12.00
2023-04-12T11:53:03.763Z,12.06
2023-04-12T11:54:03.670Z,12.00
2023-04-12T11:55:03.908Z,12.06
2023-04-12T11:56:03.754Z,12.00
2023-04-12T11:57:05.635Z,12.00
2023-04-12T11:58:03.952Z,12.12
2023-04-12T11:59:04.163Z,12.19
2023-04-12T12:00:03.984Z,12.31
2023-04-12T12:01:04.245Z,12.31
2023-04-12T12:02:10.967Z,12.31
2023-04-12T12:03:07.468Z,12.31
2023-04-12T12:04:04.736Z,12.44
2023-04-12T12:05:04.512Z,12.38
2023-04-12T12:06:04.485Z,12.44
2023-04-12T12:07:04.707Z,12.56
2023-04-12T12:08:04.313Z,12.50
2023-04-12T12:09:04.394Z,12.44
2023-04-12T12:10:04.547Z,12.44
2023-04-12T12:11:08.132Z,12.50
2023-04-12T12:12:04.394Z,12.56
2023-04-12T12:13:04.386Z,12.75
2023-04-12T12:14:04.391Z,12.69
2023-04-12T12:15:04.472Z,12.81
2023-04-12T12:16:03.568Z,13.00
2023-04-12T12:17:03.592Z,13.06
2023-04-12T12:18:03.568Z,13.06
2023-04-12T12:19:03.671Z,13.06
2023-04-12T12:20:03.511Z,13.00
2023-04-12T12:21:03.686Z,12.94
2023-04-12T12:22:03.672Z,13.00
2023-04-12T12:23:03.659Z,13.00
2023-04-12T12:24:03.841Z,13.00
2023-04-12T12:25:03.925Z,13.12
2023-04-12T12:26:17.417Z,13.12
2023-04-12T12:27:03.771Z,13.12
2023-04-12T12:28:03.888Z,13.00
2023-04-12T12:29:03.916Z,13.31
2023-04-12T12:30:03.836Z,13.38
2023-04-12T12:31:03.837Z,13.31
2023-04-12T12:32:03.993Z,13.38
2023-04-12T12:33:04.054Z,13.38
2023-04-12T12:34:05.970Z,13.38
2023-04-12T12:35:04.154Z,13.19
2023-04-12T12:36:04.246Z,13.31
2023-04-12T12:37:04.314Z,13.50
2023-04-12T12:38:04.401Z,13.50
2023-04-12T12:39:04.321Z,13.50
2023-04-12T12:40:04.416Z,13.94
2023-04-12T12:41:04.308Z,14.00
2023-04-12T12:42:04.381Z,14.12
2023-04-12T12:43:04.389Z,14.06
2023-04-12T12:44:04.327Z,13.88
2023-04-12T12:45:04.236Z,13.81
2023-04-12T12:46:04.378Z,13.69
2023-04-12T12:47:13.786Z,13.56
2023-04-12T12:48:04.298Z,13.50
2023-04-12T12:49:04.238Z,13.44
2023-04-12T12:50:04.388Z,13.31
2023-04-12T12:51:03.511Z,13.25
2023-04-12T12:52:03.675Z,13.19
2023-04-12T12:53:03.679Z,13.19
2023-04-12T12:54:03.707Z,13.25
2023-04-12T12:55:03.759Z,13.25
2023-04-12T12:56:03.667Z,13.38
2023-04-12T12:57:03.882Z,13.44
2023-04-12T12:58:07.808Z,13.56
2023-04-12T12:59:03.984Z,13.62
2023-04-12T13:00:04.076Z,13.62
2023-04-12T13:01:04.155Z,13.75
2023-04-12T13:02:04.225Z,14.00
2023-04-12T13:03:04.550Z,14.06
2023-04-12T13:04:04.371Z,14.00
2023-04-12T13:05:04.335Z,13.94